DAOR

Béchar Boudghene Ben Ali Lotfi Airport

Béchar, Algeria
METAR DAOR 232200Z 00000KT CAVOK 11/M01 Q1027
Observed Flight Rules
Jan-23 @ 22:00 UTC (an hour ago) Visual Flight Rules
Wind Visibility Clouds
Calm 10,000+ meters
  • Clear skies
Temperatures Readings
Current 11°C / 52°F
Dewpoint -1°C / 30°F
Humidity 44%
Altimeter 30.32" Hg
Pressure 1027 hPa
Elevation 773
METAR DAOR 232200Z 00000KT CAVOK 11/M01 Q1027
Observed Flight Rules
Jan-23 @ 22:00 UTC
(an hour ago)
VFR
Wind Visibility
Calm 10,000+ meters
Clouds
  • Clear skies
Temperature Dewpoint
11°C / 52°F -1°C / 30°F
Humidity Altimeter Pressure
44% 30.32" Hg 1027 hPa